createdAt,value
2022-11-26T00:01:35.262Z,57.15
2022-11-26T00:03:37.208Z,54.42
2022-11-26T00:05:43.217Z,52.65
2022-11-26T00:07:58.635Z,52.90
2022-11-26T00:10:02.251Z,53.33
2022-11-26T00:12:20.285Z,53.05
2022-11-26T00:14:22.076Z,52.15
2022-11-26T00:16:24.046Z,51.72
2022-11-26T00:18:26.995Z,51.08
2022-11-26T00:20:31.828Z,52.75
2022-11-26T00:22:40.412Z,50.83
2022-11-26T00:24:45.588Z,53.60
2022-11-26T00:26:47.430Z,52.53
2022-11-26T00:29:00.452Z,53.65
2022-11-26T00:31:07.005Z,51.08
2022-11-26T00:33:09.893Z,54.33
2022-11-26T00:35:13.329Z,52.42
2022-11-26T00:37:24.895Z,54.15
2022-11-26T00:39:32.543Z,51.10
2022-11-26T00:41:38.415Z,54.30
2022-11-26T00:43:42.367Z,53.40
2022-11-26T00:45:44.517Z,51.53
2022-11-26T00:47:47.503Z,54.80
2022-11-26T00:49:54.366Z,52.28
2022-11-26T00:51:58.252Z,52.40
2022-11-26T00:54:04.192Z,51.00
2022-11-26T00:56:06.234Z,51.65
2022-11-26T00:58:21.399Z,51.03
2022-11-26T01:00:32.814Z,50.90
2022-11-26T01:02:35.713Z,51.05
2022-11-26T01:04:37.913Z,52.35
2022-11-26T01:06:43.350Z,49.42
2022-11-26T01:08:46.791Z,50.83
2022-11-26T01:10:55.816Z,52.35
2022-11-26T01:13:07.015Z,50.30
2022-11-26T01:15:09.170Z,52.55
2022-11-26T01:17:12.348Z,50.85
2022-11-26T01:19:15.893Z,49.17
2022-11-26T01:21:18.837Z,48.05
2022-11-26T01:23:21.096Z,49.78
2022-11-26T01:25:24.651Z,47.38
2022-11-26T01:27:28.514Z,47.83
2022-11-26T01:29:30.373Z,47.22
2022-11-26T01:31:33.277Z,48.45
2022-11-26T01:33:35.162Z,48.40
2022-11-26T01:35:41.079Z,45.60
2022-11-26T01:37:43.789Z,48.22
2022-11-26T01:39:49.717Z,45.83
2022-11-26T01:42:00.257Z,50.25
2022-11-26T01:44:07.749Z,48.88
2022-11-26T01:46:18.299Z,47.45
2022-11-26T01:48:28.284Z,48.92
2022-11-26T01:50:33.229Z,50.50
2022-11-26T01:52:37.114Z,49.80
2022-11-26T01:54:49.349Z,48.60
2022-11-26T01:56:57.210Z,49.55
2022-11-26T01:59:08.699Z,49.85
2022-11-26T02:01:16.839Z,50.33
2022-11-26T02:03:20.859Z,48.20
2022-11-26T02:05:28.668Z,50.08
2022-11-26T02:07:30.804Z,48.58
2022-11-26T02:09:33.669Z,48.25
2022-11-26T02:11:36.327Z,48.38
2022-11-26T02:13:38.193Z,49.97
2022-11-26T02:15:51.478Z,50.63
2022-11-26T02:18:03.308Z,49.78
2022-11-26T02:20:35.554Z,48.03
2022-11-26T02:22:49.797Z,47.90
2022-11-26T02:25:03.013Z,50.15
2022-11-26T02:27:26.363Z,49.50
2022-11-26T02:29:46.510Z,48.47
2022-11-26T02:31:50.352Z,48.45
2022-11-26T02:34:11.918Z,50.53
2022-11-26T02:36:21.495Z,48.50
2022-11-26T02:38:33.302Z,48.90
2022-11-26T02:40:35.372Z,49.70
2022-11-26T02:42:37.413Z,50.13
2022-11-26T02:44:45.133Z,50.08
2022-11-26T02:46:49.963Z,51.85
2022-11-26T02:48:53.173Z,48.33
2022-11-26T02:51:12.464Z,47.78
2022-11-26T02:53:19.369Z,49.22
2022-11-26T02:55:27.135Z,49.88
2022-11-26T02:57:37.053Z,46.28
2022-11-26T02:59:39.753Z,49.85
2022-11-26T03:01:52.944Z,49.35
2022-11-26T03:04:00.857Z,47.80
2022-11-26T03:06:10.063Z,49.45
2022-11-26T03:08:13.927Z,48.00
2022-11-26T03:10:16.995Z,48.13
2022-11-26T03:12:22.056Z,48.30
2022-11-26T03:14:23.930Z,47.58
2022-11-26T03:16:26.089Z,47.42
2022-11-26T03:18:28.165Z,47.72
2022-11-26T03:20:34.208Z,48.03
2022-11-26T03:22:38.149Z,46.17
2022-11-26T03:24:46.287Z,45.40
2022-11-26T03:26:50.237Z,46.38
2022-11-26T03:28:54.149Z,46.97
2022-11-26T03:30:55.989Z,46.45
2022-11-26T03:32:59.919Z,46.08
2022-11-26T03:35:02.953Z,45.95
2022-11-26T03:37:05.799Z,44.28
2022-11-26T03:39:08.652Z,41.53
2022-11-26T03:41:10.439Z,41.88
2022-11-26T03:43:12.301Z,39.85
2022-11-26T03:45:17.264Z,41.10
2022-11-26T03:47:19.241Z,40.75
2022-11-26T03:49:22.139Z,39.80
2022-11-26T03:51:23.960Z,42.63
2022-11-26T03:53:26.836Z,40.28
2022-11-26T03:55:28.719Z,39.60
2022-11-26T03:57:32.604Z,41.20
2022-11-26T03:59:37.757Z,40.97
2022-11-26T04:01:39.891Z,42.03
2022-11-26T04:03:42.873Z,40.92
2022-11-26T04:05:45.765Z,41.47
2022-11-26T04:07:50.771Z,42.63
2022-11-26T04:09:54.778Z,41.28
2022-11-26T04:11:56.645Z,42.13
2022-11-26T04:14:01.571Z,42.50
2022-11-26T04:16:03.468Z,42.47
2022-11-26T04:18:05.362Z,40.15
2022-11-26T04:20:09.789Z,43.08
2022-11-26T04:22:12.608Z,42.08
2022-11-26T04:24:15.475Z,42.58
2022-11-26T04:26:17.320Z,43.60
2022-11-26T04:28:20.142Z,44.15
2022-11-26T04:30:21.995Z,43.50
2022-11-26T04:32:25.972Z,39.15
2022-11-26T04:34:28.083Z,39.83
2022-11-26T04:36:32.671Z,39.22
2022-11-26T04:38:35.660Z,39.33
2022-11-26T04:40:37.738Z,38.75
2022-11-26T04:42:39.685Z,41.72
2022-11-26T04:44:41.631Z,40.10
2022-11-26T04:46:45.572Z,41.92
2022-11-26T04:48:48.375Z,42.38
2022-11-26T04:50:50.457Z,41.33
2022-11-26T04:52:52.365Z,41.33
2022-11-26T04:54:54.348Z,38.85
2022-11-26T04:56:58.196Z,39.80
2022-11-26T04:59:01.999Z,37.17
2022-11-26T05:01:04.169Z,32.97
2022-11-26T05:03:06.162Z,28.80
2022-11-26T05:05:08.422Z,29.77
2022-11-26T05:07:10.756Z,25.55
2022-11-26T05:09:14.657Z,26.08
2022-11-26T05:11:17.463Z,21.92
2022-11-26T05:13:20.361Z,20.55
2022-11-26T05:15:23.273Z,23.77
2022-11-26T05:17:25.162Z,24.48
2022-11-26T05:19:27.093Z,23.95
2022-11-26T05:21:29.007Z,23.13
2022-11-26T05:23:30.804Z,23.95
2022-11-26T05:25:32.709Z,22.45
2022-11-26T05:27:34.593Z,24.25
2022-11-26T05:29:39.373Z,24.40
2022-11-26T05:31:42.226Z,25.83
2022-11-26T05:33:45.162Z,25.05
2022-11-26T05:35:46.967Z,24.42
2022-11-26T05:37:48.796Z,23.90
2022-11-26T05:39:50.609Z,24.40
2022-11-26T05:41:52.400Z,23.98
2022-11-26T05:43:54.322Z,24.10
2022-11-26T05:45:57.287Z,24.63
2022-11-26T05:48:02.242Z,25.10
2022-11-26T05:50:05.629Z,26.08
2022-11-26T05:52:08.455Z,26.75
2022-11-26T05:54:19.148Z,25.05
2022-11-26T05:56:25.085Z,25.98
2022-11-26T05:58:30.015Z,25.98
2022-11-26T06:00:32.893Z,27.13
2022-11-26T06:02:34.836Z,26.92
2022-11-26T06:04:45.432Z,25.80
2022-11-26T06:06:49.380Z,27.10
2022-11-26T06:08:52.280Z,27.77
2022-11-26T06:10:56.258Z,27.90
2022-11-26T06:12:58.119Z,27.98
2022-11-26T06:15:00.033Z,27.40
2022-11-26T06:17:02.952Z,28.00
2022-11-26T06:19:04.868Z,27.98
2022-11-26T06:21:08.583Z,28.67
2022-11-26T06:23:10.832Z,26.17
2022-11-26T06:25:18.504Z,25.55
2022-11-26T06:27:20.289Z,26.10
2022-11-26T06:29:27.570Z,26.80
2022-11-26T06:31:29.944Z,26.38
2022-11-26T06:33:36.577Z,26.95
2022-11-26T06:35:38.536Z,27.88
2022-11-26T06:37:41.690Z,26.90
2022-11-26T06:39:45.548Z,27.58
2022-11-26T06:41:47.437Z,27.35
2022-11-26T06:43:49.323Z,26.52
2022-11-26T06:46:06.166Z,27.90
2022-11-26T06:48:08.171Z,27.42
2022-11-26T06:50:25.198Z,27.75
2022-11-26T06:52:36.873Z,28.70
2022-11-26T06:56:50.782Z,27.27
2022-11-26T06:58:57.423Z,27.88
2022-11-26T07:01:21.491Z,27.13
2022-11-26T07:03:29.306Z,27.17
2022-11-26T07:05:38.017Z,28.02
2022-11-26T07:07:40.509Z,27.20
2022-11-26T07:09:42.629Z,25.10
2022-11-26T07:11:44.688Z,24.20
2022-11-26T07:14:02.178Z,23.50
2022-11-26T07:16:05.979Z,24.13
2022-11-26T07:18:08.935Z,23.70
2022-11-26T07:20:16.081Z,21.42
2022-11-26T07:22:28.030Z,22.40
2022-11-26T07:24:31.203Z,24.70
2022-11-26T07:26:35.098Z,25.52
2022-11-26T07:28:47.431Z,26.10
2022-11-26T07:30:50.277Z,26.05
2022-11-26T07:32:54.104Z,25.63
2022-11-26T07:34:56.019Z,25.25
2022-11-26T07:36:58.881Z,25.95
2022-11-26T07:39:03.521Z,26.00
2022-11-26T07:41:10.199Z,24.67
2022-11-26T07:43:12.198Z,24.98
2022-11-26T07:45:14.194Z,21.98
2022-11-26T07:47:16.059Z,22.63
2022-11-26T07:49:17.996Z,21.90
2022-11-26T07:51:22.308Z,22.10
2022-11-26T07:53:28.631Z,21.98
2022-11-26T07:55:31.486Z,23.40
2022-11-26T07:57:35.399Z,25.17
2022-11-26T07:59:38.332Z,25.00
2022-11-26T08:01:43.189Z,23.80
2022-11-26T08:03:47.994Z,24.40
2022-11-26T08:05:50.941Z,24.63
2022-11-26T08:07:56.995Z,26.17
2022-11-26T08:10:06.714Z,25.35
2022-11-26T08:12:08.602Z,24.90
2022-11-26T08:14:12.830Z,26.60
2022-11-26T08:16:22.910Z,25.75
2022-11-26T08:18:24.845Z,24.67
2022-11-26T08:20:29.051Z,23.52
2022-11-26T08:22:32.240Z,21.70
2022-11-26T08:24:34.204Z,20.95
2022-11-26T08:26:39.849Z,21.50
2022-11-26T08:28:45.778Z,20.88
2022-11-26T08:31:01.847Z,22.08
2022-11-26T08:33:04.976Z,20.77
2022-11-26T08:35:07.161Z,21.45
2022-11-26T08:37:09.112Z,22.73
2022-11-26T08:39:17.564Z,21.60
2022-11-26T08:41:19.899Z,21.77
2022-11-26T08:43:34.546Z,21.17
2022-11-26T08:45:44.658Z,22.52
2022-11-26T08:47:46.601Z,21.55
2022-11-26T08:49:51.617Z,23.35
2022-11-26T08:51:57.397Z,23.52
2022-11-26T08:53:59.448Z,24.80
2022-11-26T08:56:10.993Z,24.55
2022-11-26T08:58:15.240Z,22.30
2022-11-26T09:00:18.571Z,22.85
2022-11-26T09:02:20.606Z,23.98
2022-11-26T09:04:22.618Z,21.52
2022-11-26T09:06:26.964Z,21.83
2022-11-26T09:08:29.929Z,19.73
2022-11-26T09:10:31.851Z,20.38
2022-11-26T09:12:33.727Z,20.33
2022-11-26T09:14:39.173Z,20.45
2022-11-26T09:16:43.892Z,19.48
2022-11-26T09:18:52.203Z,20.75
2022-11-26T09:20:57.178Z,19.50
2022-11-26T09:22:59.311Z,20.35
2022-11-26T09:25:01.277Z,19.73
2022-11-26T09:27:12.160Z,18.50
2022-11-26T09:29:16.087Z,18.08
2022-11-26T09:31:21.214Z,18.90
2022-11-26T09:33:30.001Z,19.55
2022-11-26T09:35:32.241Z,20.30
2022-11-26T09:37:36.157Z,20.95
2022-11-26T09:39:45.154Z,19.90
2022-11-26T09:42:14.731Z,20.20
2022-11-26T09:44:40.904Z,21.17
2022-11-26T09:47:12.192Z,20.73
2022-11-26T09:49:16.104Z,21.40
2022-11-26T09:51:20.663Z,20.75
2022-11-26T09:53:41.798Z,21.27
2022-11-26T09:55:47.891Z,21.55
2022-11-26T09:58:33.076Z,21.10
2022-11-26T10:00:42.818Z,22.10
2022-11-26T10:02:44.741Z,22.15
2022-11-26T10:04:47.218Z,22.05
2022-11-26T10:06:59.275Z,23.40
2022-11-26T10:09:22.327Z,22.42
2022-11-26T10:11:55.876Z,22.30
2022-11-26T10:14:09.965Z,22.55
2022-11-26T10:16:40.540Z,21.98
2022-11-26T10:19:05.540Z,23.40
2022-11-26T10:21:18.269Z,22.13
2022-11-26T10:23:36.150Z,23.27
2022-11-26T10:25:54.751Z,21.95
2022-11-26T10:27:58.527Z,22.15
2022-11-26T10:30:09.730Z,21.92
2022-11-26T10:32:27.472Z,21.73
2022-11-26T10:34:46.416Z,21.40
2022-11-26T10:36:49.582Z,21.67
2022-11-26T10:38:52.956Z,22.70
2022-11-26T10:40:54.814Z,21.55
2022-11-26T10:42:59.578Z,20.50
2022-11-26T10:45:21.128Z,20.92
2022-11-26T10:47:32.588Z,19.15
2022-11-26T10:51:38.689Z,18.40
2022-11-26T10:54:01.587Z,19.30
2022-11-26T10:56:07.569Z,19.08
2022-11-26T10:58:19.820Z,18.35
2022-11-26T11:00:27.692Z,18.15
2022-11-26T11:02:41.475Z,20.15
2022-11-26T11:05:06.228Z,18.15
2022-11-26T11:07:29.696Z,18.25
2022-11-26T11:09:35.459Z,17.25
2022-11-26T11:11:37.227Z,17.67
2022-11-26T11:13:44.940Z,18.23
2022-11-26T11:15:46.880Z,18.15
2022-11-26T11:18:13.391Z,18.88
2022-11-26T11:20:15.267Z,19.63
2022-11-26T11:22:21.171Z,18.67
2022-11-26T11:24:30.027Z,17.55
2022-11-26T11:26:40.376Z,17.25
2022-11-26T11:28:48.575Z,17.35
2022-11-26T11:31:02.701Z,18.80
2022-11-26T11:33:17.013Z,18.38
2022-11-26T11:35:26.186Z,16.80
2022-11-26T11:37:28.446Z,18.35
2022-11-26T11:39:35.490Z,17.88
2022-11-26T11:41:38.415Z,17.75
2022-11-26T11:43:42.291Z,17.98
2022-11-26T11:45:55.946Z,17.45
2022-11-26T11:48:04.335Z,17.17
2022-11-26T11:50:21.262Z,17.20
2022-11-26T11:52:34.905Z,16.20
2022-11-26T11:54:57.150Z,18.75
2022-11-26T11:57:07.369Z,18.65
2022-11-26T12:00:09.792Z,19.40
2022-11-26T12:04:38.276Z,17.77
2022-11-26T12:06:49.339Z,17.37
2022-11-26T12:09:00.043Z,18.30
2022-11-26T12:11:22.558Z,18.52
2022-11-26T12:13:27.029Z,19.90
2022-11-26T12:15:34.035Z,20.20
2022-11-26T12:17:47.699Z,19.77
2022-11-26T12:20:04.613Z,19.45
2022-11-26T12:22:30.060Z,19.77
2022-11-26T12:25:01.842Z,18.70
2022-11-26T12:27:52.773Z,18.67
2022-11-26T12:30:14.934Z,17.70
2022-11-26T12:32:21.987Z,18.88
2022-11-26T12:34:31.754Z,18.13
2022-11-26T12:36:51.366Z,19.20
2022-11-26T12:38:57.776Z,19.67
2022-11-26T12:41:06.839Z,20.42
2022-11-26T12:43:19.208Z,23.20
2022-11-26T12:45:39.114Z,19.45
2022-11-26T12:47:52.066Z,19.40
2022-11-26T12:50:09.480Z,18.33
2022-11-26T12:52:14.067Z,18.67
2022-11-26T12:54:24.098Z,18.13
2022-11-26T12:56:32.535Z,19.20
2022-11-26T12:59:06.165Z,20.77
2022-11-26T13:01:14.053Z,20.75
2022-11-26T13:03:32.411Z,19.75
2022-11-26T13:06:16.241Z,20.77
2022-11-26T13:08:20.572Z,20.00
2022-11-26T13:10:28.340Z,18.45
2022-11-26T13:12:46.901Z,20.65
2022-11-26T13:14:52.357Z,19.13
2022-11-26T13:17:14.298Z,20.45
2022-11-26T13:21:46.212Z,20.40
2022-11-26T13:23:51.182Z,19.77
2022-11-26T13:26:36.711Z,20.17
2022-11-26T13:28:56.022Z,20.65
2022-11-26T13:31:06.253Z,20.92
2022-11-26T13:33:23.049Z,22.05
2022-11-26T13:35:57.287Z,21.65
2022-11-26T13:38:20.629Z,21.77
2022-11-26T13:40:53.593Z,20.63
2022-11-26T13:43:43.556Z,20.77
2022-11-26T13:46:16.451Z,20.70
2022-11-26T13:48:43.014Z,21.98
2022-11-26T13:50:53.099Z,20.73
2022-11-26T13:53:14.381Z,22.05
2022-11-26T13:55:22.739Z,22.75
2022-11-26T13:57:31.826Z,23.23
2022-11-26T13:59:34.817Z,22.75
2022-11-26T14:01:43.335Z,21.48
2022-11-26T14:03:49.048Z,21.05
2022-11-26T14:05:50.926Z,21.17
2022-11-26T14:08:38.622Z,23.48
2022-11-26T14:10:42.759Z,23.33
2022-11-26T14:13:02.859Z,23.63
2022-11-26T14:15:41.247Z,23.75
2022-11-26T14:17:57.214Z,23.70
2022-11-26T14:20:01.093Z,23.40
2022-11-26T14:22:04.004Z,23.73
2022-11-26T14:24:05.968Z,22.67
2022-11-26T14:26:12.599Z,24.23
2022-11-26T14:28:16.512Z,24.90
2022-11-26T14:30:27.534Z,23.65
2022-11-26T14:32:34.052Z,24.42
2022-11-26T14:34:47.664Z,23.00
2022-11-26T14:37:00.236Z,23.15
2022-11-26T14:39:09.397Z,23.80
2022-11-26T14:41:18.074Z,24.25
2022-11-26T14:43:20.337Z,24.48
2022-11-26T14:45:24.415Z,23.08
2022-11-26T14:47:27.664Z,23.10
2022-11-26T14:49:43.201Z,23.50
2022-11-26T14:51:48.012Z,23.00
2022-11-26T14:53:51.126Z,23.98
2022-11-26T14:55:53.614Z,21.60
2022-11-26T14:58:09.157Z,24.25
2022-11-26T15:00:16.080Z,23.42
2022-11-26T15:02:25.784Z,22.52
2022-11-26T15:04:39.180Z,23.50
2022-11-26T15:06:43.468Z,24.20
2022-11-26T15:08:46.325Z,23.73
2022-11-26T15:10:50.416Z,23.20
2022-11-26T15:12:53.603Z,23.70
2022-11-26T15:14:59.165Z,23.73
2022-11-26T15:17:02.818Z,23.02
2022-11-26T15:19:07.368Z,22.63
2022-11-26T15:21:18.515Z,24.13
2022-11-26T15:23:39.649Z,21.75
2022-11-26T15:25:48.847Z,22.00
2022-11-26T15:28:00.529Z,21.48
2022-11-26T15:32:28.042Z,22.88
2022-11-26T15:34:33.223Z,22.92
2022-11-26T15:36:35.186Z,23.58
2022-11-26T15:39:03.894Z,22.95
2022-11-26T15:41:08.557Z,22.73
2022-11-26T15:43:45.898Z,22.48
2022-11-26T15:45:49.066Z,23.55
2022-11-26T15:47:54.708Z,22.35
2022-11-26T15:50:01.089Z,22.55
2022-11-26T15:52:15.597Z,20.88
2022-11-26T15:54:30.821Z,21.05
2022-11-26T15:56:40.569Z,22.48
2022-11-26T15:58:43.231Z,21.10
2022-11-26T16:00:51.757Z,20.92
2022-11-26T16:02:54.973Z,20.88
2022-11-26T16:05:01.536Z,20.63
2022-11-26T16:07:21.944Z,20.70
2022-11-26T16:09:31.910Z,20.35
2022-11-26T16:11:37.139Z,20.88
2022-11-26T16:13:39.023Z,20.27
2022-11-26T16:16:04.527Z,20.17
2022-11-26T16:18:17.005Z,19.52
2022-11-26T16:20:25.172Z,20.63
2022-11-26T16:22:33.098Z,20.15
2022-11-26T16:24:43.935Z,19.92
2022-11-26T16:26:58.474Z,20.70
2022-11-26T16:29:00.413Z,20.23
2022-11-26T16:31:02.829Z,19.52
2022-11-26T16:33:08.506Z,19.08
2022-11-26T16:35:43.637Z,19.25
2022-11-26T16:37:44.383Z,18.77
2022-11-26T16:39:47.457Z,18.38
2022-11-26T16:41:49.329Z,18.70
2022-11-26T16:43:54.780Z,18.50
2022-11-26T16:45:59.271Z,18.63
2022-11-26T16:48:02.437Z,18.73
2022-11-26T16:50:05.231Z,17.10
2022-11-26T16:52:12.533Z,18.00
2022-11-26T16:54:17.315Z,18.88
2022-11-26T16:56:39.079Z,18.02
2022-11-26T17:00:51.356Z,18.17
2022-11-26T17:02:54.322Z,16.98
2022-11-26T17:04:56.397Z,18.50
2022-11-26T17:06:58.462Z,17.55
2022-11-26T17:09:01.428Z,19.52
2022-11-26T17:11:06.545Z,17.88
2022-11-26T17:13:08.933Z,18.60
2022-11-26T17:15:11.598Z,18.42
2022-11-26T17:17:29.564Z,20.15
2022-11-26T17:19:34.947Z,21.98
2022-11-26T17:21:36.873Z,22.27
2022-11-26T17:23:39.665Z,21.70
2022-11-26T17:25:48.897Z,21.15
2022-11-26T17:27:50.924Z,21.23
2022-11-26T17:29:57.555Z,21.05
2022-11-26T17:32:01.751Z,21.27
2022-11-26T17:34:03.914Z,18.63
2022-11-26T17:36:16.966Z,18.70
2022-11-26T17:38:22.300Z,18.08
2022-11-26T17:40:27.390Z,18.80
2022-11-26T17:42:33.579Z,19.13
2022-11-26T17:44:43.590Z,19.40
2022-11-26T17:47:09.543Z,19.30
2022-11-26T17:49:16.254Z,18.52
2022-11-26T17:51:19.925Z,19.42
2022-11-26T17:53:25.117Z,20.92
2022-11-26T17:55:33.960Z,18.52
2022-11-26T17:57:36.392Z,20.95
2022-11-26T17:59:40.012Z,21.70
2022-11-26T18:01:43.713Z,21.60
2022-11-26T18:03:46.414Z,19.65
2022-11-26T18:05:48.428Z,20.67
2022-11-26T18:07:50.969Z,21.00
2022-11-26T18:09:53.238Z,18.88
2022-11-26T18:11:56.451Z,20.13
2022-11-26T18:13:58.500Z,20.17
2022-11-26T18:16:00.857Z,21.25
2022-11-26T18:18:03.255Z,19.45
2022-11-26T18:20:06.084Z,19.10
2022-11-26T18:22:15.399Z,19.45
2022-11-26T18:24:21.205Z,19.20
2022-11-26T18:26:23.134Z,19.75
2022-11-26T18:28:25.250Z,22.02
2022-11-26T18:30:27.673Z,21.13
2022-11-26T18:32:31.207Z,21.13
2022-11-26T18:34:33.283Z,21.88
2022-11-26T18:36:48.214Z,22.15
2022-11-26T18:38:57.909Z,21.50
2022-11-26T18:41:08.565Z,22.08
2022-11-26T18:43:12.363Z,21.73
2022-11-26T18:45:18.484Z,22.45
2022-11-26T18:47:21.090Z,22.52
2022-11-26T18:49:23.376Z,22.83
2022-11-26T18:51:30.275Z,23.77
2022-11-26T18:53:32.990Z,24.73
2022-11-26T18:55:39.585Z,23.92
2022-11-26T18:57:42.056Z,24.08
2022-11-26T18:59:47.496Z,24.92
2022-11-26T19:01:51.145Z,25.08
2022-11-26T19:03:55.836Z,24.83
2022-11-26T19:05:59.116Z,25.60
2022-11-26T19:08:03.434Z,24.45
2022-11-26T19:10:06.139Z,25.30
2022-11-26T19:12:08.498Z,25.15
2022-11-26T19:14:13.862Z,24.13
2022-11-26T19:16:18.095Z,25.08
2022-11-26T19:18:20.661Z,25.42
2022-11-26T19:20:23.268Z,25.38
2022-11-26T19:22:25.301Z,25.77
2022-11-26T19:24:29.090Z,25.98
2022-11-26T19:26:31.740Z,26.25
2022-11-26T19:28:33.865Z,25.40
2022-11-26T19:30:37.855Z,25.02
2022-11-26T19:32:40.789Z,25.10
2022-11-26T19:34:43.140Z,26.23
2022-11-26T19:36:48.970Z,24.92
2022-11-26T19:38:56.560Z,24.50
2022-11-26T19:41:00.613Z,24.88
2022-11-26T19:43:02.915Z,26.77
2022-11-26T19:45:05.506Z,25.33
2022-11-26T19:47:07.872Z,24.90
2022-11-26T19:49:13.529Z,26.67
2022-11-26T19:51:17.669Z,24.83
2022-11-26T19:53:20.043Z,24.13
2022-11-26T19:55:23.744Z,24.13
2022-11-26T19:57:26.560Z,24.58
2022-11-26T19:59:29.310Z,25.42
2022-11-26T20:01:35.154Z,26.05
2022-11-26T20:03:37.953Z,25.08
2022-11-26T20:05:40.828Z,25.77
2022-11-26T20:07:45.787Z,26.17
2022-11-26T20:09:51.926Z,28.48
2022-11-26T20:11:54.194Z,27.73
2022-11-26T20:13:57.461Z,27.65
2022-11-26T20:16:00.554Z,26.30
2022-11-26T20:18:02.911Z,27.38
2022-11-26T20:20:05.443Z,26.00
2022-11-26T20:22:07.834Z,28.35
2022-11-26T20:24:14.972Z,28.30
2022-11-26T20:26:19.587Z,28.20
2022-11-26T20:28:22.452Z,27.15
2022-11-26T20:30:26.548Z,27.05
2022-11-26T20:32:28.473Z,27.73
2022-11-26T20:34:33.805Z,27.25
2022-11-26T20:36:38.219Z,28.48
2022-11-26T20:38:40.604Z,28.20
2022-11-26T20:40:43.814Z,27.63
2022-11-26T20:42:46.943Z,28.55
2022-11-26T20:44:49.432Z,26.70
2022-11-26T20:46:52.457Z,27.10
2022-11-26T20:48:54.831Z,26.33
2022-11-26T20:51:01.590Z,27.45
2022-11-26T20:53:04.847Z,25.25
2022-11-26T20:55:07.965Z,27.38
2022-11-26T20:57:10.187Z,27.20
2022-11-26T20:59:12.655Z,28.35
2022-11-26T21:01:29.099Z,27.50
2022-11-26T21:03:32.220Z,28.75
2022-11-26T21:05:34.412Z,28.08
2022-11-26T21:07:38.594Z,26.90
2022-11-26T21:09:42.646Z,27.55
2022-11-26T21:11:46.618Z,28.45
2022-11-26T21:13:48.951Z,29.48
2022-11-26T21:15:51.338Z,28.17
2022-11-26T21:17:54.362Z,29.05
2022-11-26T21:19:56.520Z,28.73
2022-11-26T21:21:58.417Z,30.17
2022-11-26T21:24:04.695Z,27.92
2022-11-26T21:26:11.909Z,28.70
2022-11-26T21:28:15.092Z,30.05
2022-11-26T21:30:17.683Z,29.30
2022-11-26T21:32:19.585Z,30.48
2022-11-26T21:34:21.527Z,29.05
2022-11-26T21:36:24.948Z,28.45
2022-11-26T21:38:27.001Z,28.73
2022-11-26T21:40:29.321Z,31.40
2022-11-26T21:42:31.258Z,29.95
2022-11-26T21:44:33.621Z,31.02
2022-11-26T21:46:38.634Z,28.38
2022-11-26T21:48:40.939Z,30.67
2022-11-26T21:50:42.939Z,29.85
2022-11-26T21:52:45.181Z,31.35
2022-11-26T21:54:48.457Z,30.35
2022-11-26T21:56:50.503Z,31.38
2022-11-26T21:58:52.880Z,31.30
2022-11-26T22:00:57.316Z,31.55
2022-11-26T22:02:59.511Z,32.17
2022-11-26T22:05:01.514Z,32.47
2022-11-26T22:07:04.069Z,32.55
2022-11-26T22:09:06.399Z,30.48
2022-11-26T22:11:14.036Z,30.90
2022-11-26T22:13:16.156Z,29.27
2022-11-26T22:15:18.335Z,31.77
2022-11-26T22:17:20.425Z,30.48
2022-11-26T22:19:22.497Z,30.15
2022-11-26T22:21:25.942Z,31.63
2022-11-26T22:23:30.877Z,30.23
2022-11-26T22:25:33.808Z,30.17
2022-11-26T22:27:35.739Z,29.73
2022-11-26T22:29:38.236Z,31.40
2022-11-26T22:31:40.843Z,30.77
2022-11-26T22:33:42.956Z,30.35
2022-11-26T22:35:45.049Z,29.30
2022-11-26T22:37:46.913Z,30.27
2022-11-26T22:39:53.625Z,30.90
2022-11-26T22:41:55.879Z,28.95
2022-11-26T22:44:03.768Z,30.42
2022-11-26T22:46:07.616Z,30.98
2022-11-26T22:48:12.050Z,30.52
2022-11-26T22:50:16.316Z,31.25
2022-11-26T22:52:18.423Z,32.20
2022-11-26T22:54:21.509Z,30.58
2022-11-26T22:56:23.805Z,30.73
2022-11-26T22:58:30.295Z,29.80
2022-11-26T23:01:07.866Z,30.55
2022-11-26T23:03:09.973Z,31.83
2022-11-26T23:05:12.003Z,31.05
2022-11-26T23:07:15.107Z,30.88
2022-11-26T23:09:17.185Z,30.88
2022-11-26T23:11:25.487Z,30.65
2022-11-26T23:13:27.465Z,29.92
2022-11-26T23:15:29.573Z,29.38
2022-11-26T23:17:31.477Z,29.95
2022-11-26T23:19:33.496Z,29.35
2022-11-26T23:21:40.094Z,30.15
2022-11-26T23:23:43.182Z,28.70
2022-11-26T23:25:45.191Z,28.40
2022-11-26T23:27:47.806Z,29.08
2022-11-26T23:29:49.879Z,31.23
2022-11-26T23:31:51.886Z,29.95
2022-11-26T23:33:53.990Z,29.50
2022-11-26T23:35:56.866Z,29.73
2022-11-26T23:37:58.804Z,27.50
2022-11-26T23:40:00.825Z,29.33
2022-11-26T23:42:02.886Z,29.00
2022-11-26T23:44:05.088Z,27.88
2022-11-26T23:46:28.221Z,28.23
2022-11-26T23:48:30.818Z,29.10
2022-11-26T23:50:33.996Z,30.63
2022-11-26T23:52:36.533Z,30.88
2022-11-26T23:54:38.459Z,29.85
2022-11-26T23:56:44.581Z,29.58
2022-11-26T23:59:00.536Z,30.08
